sensor_id;sensor_type;location;lat;lon;timestamp;temperature;humidity
8313;DHT22;4194;43.408;24.626;2023-05-21T00:00:49;12.50;99.90
8313;DHT22;4194;43.408;24.626;2023-05-21T00:03:16;13.30;99.90
8313;DHT22;4194;43.408;24.626;2023-05-21T00:05:42;13.00;99.90
8313;DHT22;4194;43.408;24.626;2023-05-21T00:08:11;13.10;99.90
8313;DHT22;4194;43.408;24.626;2023-05-21T00:10:38;12.50;99.90
8313;DHT22;4194;43.408;24.626;2023-05-21T00:13:04;12.00;99.90
8313;DHT22;4194;43.408;24.626;2023-05-21T00:15:29;12.60;99.90
8313;DHT22;4194;43.408;24.626;2023-05-21T00:20:21;11.20;99.90
8313;DHT22;4194;43.408;24.626;2023-05-21T00:22:47;12.80;99.90
8313;DHT22;4194;43.408;24.626;2023-05-21T00:25:13;13.10;99.90
8313;DHT22;4194;43.408;24.626;2023-05-21T00:27:39;12.30;99.90
8313;DHT22;4194;43.408;24.626;2023-05-21T00:30:05;12.10;99.90
8313;DHT22;4194;43.408;24.626;2023-05-21T00:32:31;13.20;99.90
8313;DHT22;4194;43.408;24.626;2023-05-21T00:34:57;11.60;99.90
8313;DHT22;4194;43.408;24.626;2023-05-21T00:37:22;13.20;99.90
8313;DHT22;4194;43.408;24.626;2023-05-21T00:39:49;11.60;99.90
8313;DHT22;4194;43.408;24.626;2023-05-21T00:42:16;11.90;99.90
8313;DHT22;4194;43.408;24.626;2023-05-21T00:44:43;12.80;99.90
8313;DHT22;4194;43.408;24.626;2023-05-21T00:47:10;12.10;99.90
8313;DHT22;4194;43.408;24.626;2023-05-21T00:49:36;12.10;99.90
8313;DHT22;4194;43.408;24.626;2023-05-21T00:52:02;12.20;99.90
8313;DHT22;4194;43.408;24.626;2023-05-21T00:54:28;12.10;99.90
8313;DHT22;4194;43.408;24.626;2023-05-21T00:56:54;12.30;99.90
8313;DHT22;4194;43.408;24.626;2023-05-21T00:59:20;11.80;99.90
8313;DHT22;4194;43.408;24.626;2023-05-21T01:01:46;12.20;99.90
8313;DHT22;4194;43.408;24.626;2023-05-21T01:04:18;12.30;99.90
8313;DHT22;4194;43.408;24.626;2023-05-21T01:09:10;12.20;99.90
8313;DHT22;4194;43.408;24.626;2023-05-21T01:11:45;11.90;99.90
8313;DHT22;4194;43.408;24.626;2023-05-21T01:14:12;12.00;99.90
8313;DHT22;4194;43.408;24.626;2023-05-21T01:16:41;12.40;99.90
8313;DHT22;4194;43.408;24.626;2023-05-21T01:19:09;12.00;99.90
8313;DHT22;4194;43.408;24.626;2023-05-21T01:21:41;12.10;99.90
8313;DHT22;4194;43.408;24.626;2023-05-21T01:26:35;12.20;99.90
8313;DHT22;4194;43.408;24.626;2023-05-21T01:29:06;12.20;99.90
8313;DHT22;4194;43.408;24.626;2023-05-21T01:31:50;13.10;99.90
8313;DHT22;4194;43.408;24.626;2023-05-21T01:34:21;11.80;99.90
8313;DHT22;4194;43.408;24.626;2023-05-21T01:36:56;12.10;99.90
8313;DHT22;4194;43.408;24.626;2023-05-21T01:39:31;11.80;99.90
8313;DHT22;4194;43.408;24.626;2023-05-21T01:41:59;12.10;99.90
8313;DHT22;4194;43.408;24.626;2023-05-21T01:44:27;10.90;99.90
8313;DHT22;4194;43.408;24.626;2023-05-21T01:46:55;12.20;99.90
8313;DHT22;4194;43.408;24.626;2023-05-21T01:49:21;11.60;99.90
8313;DHT22;4194;43.408;24.626;2023-05-21T01:51:48;13.10;99.90
8313;DHT22;4194;43.408;24.626;2023-05-21T01:54:14;11.90;99.90
8313;DHT22;4194;43.408;24.626;2023-05-21T01:56:40;11.90;99.90
8313;DHT22;4194;43.408;24.626;2023-05-21T01:59:05;12.90;99.90
8313;DHT22;4194;43.408;24.626;2023-05-21T02:01:31;10.80;99.90
8313;DHT22;4194;43.408;24.626;2023-05-21T02:03:57;12.40;99.90
8313;DHT22;4194;43.408;24.626;2023-05-21T02:06:23;11.30;99.90
8313;DHT22;4194;43.408;24.626;2023-05-21T02:08:48;12.40;99.90
8313;DHT22;4194;43.408;24.626;2023-05-21T02:11:14;13.00;99.90
8313;DHT22;4194;43.408;24.626;2023-05-21T02:13:40;11.90;99.90
8313;DHT22;4194;43.408;24.626;2023-05-21T02:16:07;12.10;99.90
8313;DHT22;4194;43.408;24.626;2023-05-21T02:18:41;13.40;99.90
8313;DHT22;4194;43.408;24.626;2023-05-21T02:21:11;13.50;99.90
8313;DHT22;4194;43.408;24.626;2023-05-21T02:23:37;12.20;99.90
8313;DHT22;4194;43.408;24.626;2023-05-21T02:26:03;10.80;99.90
8313;DHT22;4194;43.408;24.626;2023-05-21T02:28:29;12.10;99.90
8313;DHT22;4194;43.408;24.626;2023-05-21T02:30:55;11.20;99.90
8313;DHT22;4194;43.408;24.626;2023-05-21T02:33:21;12.40;99.90
8313;DHT22;4194;43.408;24.626;2023-05-21T02:35:49;13.30;99.90
8313;DHT22;4194;43.408;24.626;2023-05-21T02:38:15;11.10;99.90
8313;DHT22;4194;43.408;24.626;2023-05-21T02:40:44;12.50;99.90
8313;DHT22;4194;43.408;24.626;2023-05-21T02:43:10;13.30;99.90
8313;DHT22;4194;43.408;24.626;2023-05-21T02:45:36;13.70;99.90
8313;DHT22;4194;43.408;24.626;2023-05-21T02:48:02;13.80;99.90
8313;DHT22;4194;43.408;24.626;2023-05-21T02:50:27;11.60;99.90
8313;DHT22;4194;43.408;24.626;2023-05-21T02:52:53;13.60;99.90
8313;DHT22;4194;43.408;24.626;2023-05-21T02:55:19;14.00;99.90
8313;DHT22;4194;43.408;24.626;2023-05-21T02:57:45;13.60;99.90
8313;DHT22;4194;43.408;24.626;2023-05-21T03:00:11;12.80;99.90
8313;DHT22;4194;43.408;24.626;2023-05-21T03:02:37;13.90;99.90
8313;DHT22;4194;43.408;24.626;2023-05-21T03:05:02;12.70;99.90
8313;DHT22;4194;43.408;24.626;2023-05-21T03:07:29;12.10;99.90
8313;DHT22;4194;43.408;24.626;2023-05-21T03:09:55;14.00;99.90
8313;DHT22;4194;43.408;24.626;2023-05-21T03:12:20;11.40;99.90
8313;DHT22;4194;43.408;24.626;2023-05-21T03:14:48;13.50;99.90
8313;DHT22;4194;43.408;24.626;2023-05-21T03:17:13;14.20;99.90
8313;DHT22;4194;43.408;24.626;2023-05-21T03:19:40;13.40;99.90
8313;DHT22;4194;43.408;24.626;2023-05-21T03:24:32;13.20;99.90
8313;DHT22;4194;43.408;24.626;2023-05-21T03:26:58;12.70;99.90
8313;DHT22;4194;43.408;24.626;2023-05-21T03:29:26;13.40;99.90
8313;DHT22;4194;43.408;24.626;2023-05-21T03:31:53;13.50;99.90
8313;DHT22;4194;43.408;24.626;2023-05-21T03:34:20;12.60;99.90
8313;DHT22;4194;43.408;24.626;2023-05-21T03:36:46;12.60;99.90
8313;DHT22;4194;43.408;24.626;2023-05-21T03:39:12;14.10;99.90
8313;DHT22;4194;43.408;24.626;2023-05-21T03:41:37;13.80;99.90
8313;DHT22;4194;43.408;24.626;2023-05-21T03:44:03;12.50;99.90
8313;DHT22;4194;43.408;24.626;2023-05-21T03:46:29;12.40;99.90
8313;DHT22;4194;43.408;24.626;2023-05-21T03:48:55;12.70;99.90
8313;DHT22;4194;43.408;24.626;2023-05-21T03:51:22;13.70;99.90
8313;DHT22;4194;43.408;24.626;2023-05-21T03:53:49;14.00;99.90
8313;DHT22;4194;43.408;24.626;2023-05-21T03:56:15;13.30;99.90
8313;DHT22;4194;43.408;24.626;2023-05-21T03:58:41;13.60;99.90
8313;DHT22;4194;43.408;24.626;2023-05-21T04:01:06;14.60;99.90
8313;DHT22;4194;43.408;24.626;2023-05-21T04:03:33;14.10;99.90
8313;DHT22;4194;43.408;24.626;2023-05-21T04:06:03;14.00;99.90
8313;DHT22;4194;43.408;24.626;2023-05-21T04:08:28;13.90;99.90
8313;DHT22;4194;43.408;24.626;2023-05-21T04:10:55;14.10;99.90
8313;DHT22;4194;43.408;24.626;2023-05-21T04:13:21;14.40;99.90
8313;DHT22;4194;43.408;24.626;2023-05-21T04:15:46;14.00;99.90
8313;DHT22;4194;43.408;24.626;2023-05-21T04:18:13;14.40;99.90
8313;DHT22;4194;43.408;24.626;2023-05-21T04:20:41;14.10;99.90
8313;DHT22;4194;43.408;24.626;2023-05-21T04:23:07;14.10;99.90
8313;DHT22;4194;43.408;24.626;2023-05-21T04:25:33;13.70;99.90
8313;DHT22;4194;43.408;24.626;2023-05-21T04:30:25;14.20;99.90
8313;DHT22;4194;43.408;24.626;2023-05-21T04:32:51;14.40;99.90
8313;DHT22;4194;43.408;24.626;2023-05-21T04:37:43;14.90;99.90
8313;DHT22;4194;43.408;24.626;2023-05-21T04:40:11;16.00;99.90
8313;DHT22;4194;43.408;24.626;2023-05-21T04:42:37;14.60;99.90
8313;DHT22;4194;43.408;24.626;2023-05-21T04:45:03;14.50;99.90
8313;DHT22;4194;43.408;24.626;2023-05-21T04:47:29;15.20;99.90
8313;DHT22;4194;43.408;24.626;2023-05-21T04:52:26;15.90;99.90
8313;DHT22;4194;43.408;24.626;2023-05-21T04:57:18;17.00;99.90
8313;DHT22;4194;43.408;24.626;2023-05-21T04:59:44;16.30;99.90
8313;DHT22;4194;43.408;24.626;2023-05-21T05:02:11;15.50;99.90
8313;DHT22;4194;43.408;24.626;2023-05-21T05:07:03;17.90;99.90
8313;DHT22;4194;43.408;24.626;2023-05-21T05:09:28;17.30;99.90
8313;DHT22;4194;43.408;24.626;2023-05-21T05:14:22;17.80;99.90
8313;DHT22;4194;43.408;24.626;2023-05-21T05:16:47;17.80;99.90
8313;DHT22;4194;43.408;24.626;2023-05-21T05:19:13;18.30;99.90
8313;DHT22;4194;43.408;24.626;2023-05-21T05:21:39;17.30;99.90
8313;DHT22;4194;43.408;24.626;2023-05-21T05:24:05;18.60;99.90
8313;DHT22;4194;43.408;24.626;2023-05-21T05:26:30;17.40;99.90
8313;DHT22;4194;43.408;24.626;2023-05-21T05:28:56;17.40;99.90
8313;DHT22;4194;43.408;24.626;2023-05-21T05:31:22;17.30;99.90
8313;DHT22;4194;43.408;24.626;2023-05-21T05:33:47;18.00;99.90
8313;DHT22;4194;43.408;24.626;2023-05-21T05:36:13;17.20;99.90
8313;DHT22;4194;43.408;24.626;2023-05-21T05:38:39;17.20;99.90
8313;DHT22;4194;43.408;24.626;2023-05-21T05:41:05;18.00;99.90
8313;DHT22;4194;43.408;24.626;2023-05-21T05:43:30;17.90;99.90
8313;DHT22;4194;43.408;24.626;2023-05-21T05:45:56;18.70;99.90
8313;DHT22;4194;43.408;24.626;2023-05-21T05:48:22;18.00;99.90
8313;DHT22;4194;43.408;24.626;2023-05-21T05:50:47;18.30;99.90
8313;DHT22;4194;43.408;24.626;2023-05-21T05:53:13;18.80;99.90
8313;DHT22;4194;43.408;24.626;2023-05-21T05:55:39;18.60;99.90
8313;DHT22;4194;43.408;24.626;2023-05-21T05:58:05;18.60;99.90
8313;DHT22;4194;43.408;24.626;2023-05-21T06:00:31;18.60;99.90
8313;DHT22;4194;43.408;24.626;2023-05-21T06:02:57;17.70;99.90
8313;DHT22;4194;43.408;24.626;2023-05-21T06:05:23;18.00;99.90
8313;DHT22;4194;43.408;24.626;2023-05-21T06:10:15;18.60;99.90
8313;DHT22;4194;43.408;24.626;2023-05-21T06:12:40;18.30;99.90
8313;DHT22;4194;43.408;24.626;2023-05-21T06:15:06;18.90;99.90
8313;DHT22;4194;43.408;24.626;2023-05-21T06:17:32;19.00;99.90
8313;DHT22;4194;43.408;24.626;2023-05-21T06:24:50;19.10;99.90
8313;DHT22;4194;43.408;24.626;2023-05-21T06:27:16;19.20;99.90
8313;DHT22;4194;43.408;24.626;2023-05-21T06:29:41;19.30;99.90
8313;DHT22;4194;43.408;24.626;2023-05-21T06:32:07;19.20;99.90
8313;DHT22;4194;43.408;24.626;2023-05-21T06:34:33;19.30;99.90
8313;DHT22;4194;43.408;24.626;2023-05-21T06:36:59;19.40;99.90
8313;DHT22;4194;43.408;24.626;2023-05-21T06:39:25;20.40;99.90
8313;DHT22;4194;43.408;24.626;2023-05-21T06:41:51;19.40;99.90
8313;DHT22;4194;43.408;24.626;2023-05-21T06:44:17;18.70;99.90
8313;DHT22;4194;43.408;24.626;2023-05-21T06:46:43;19.90;99.90
8313;DHT22;4194;43.408;24.626;2023-05-21T06:49:10;19.10;99.90
8313;DHT22;4194;43.408;24.626;2023-05-21T06:51:36;20.00;99.90
8313;DHT22;4194;43.408;24.626;2023-05-21T06:54:03;21.40;99.90
8313;DHT22;4194;43.408;24.626;2023-05-21T06:56:28;20.30;99.90
8313;DHT22;4194;43.408;24.626;2023-05-21T06:58:54;20.20;99.90
8313;DHT22;4194;43.408;24.626;2023-05-21T07:01:20;19.10;99.90
8313;DHT22;4194;43.408;24.626;2023-05-21T07:03:47;20.80;99.90
8313;DHT22;4194;43.408;24.626;2023-05-21T07:06:12;21.00;99.90
8313;DHT22;4194;43.408;24.626;2023-05-21T07:08:38;20.40;99.90
8313;DHT22;4194;43.408;24.626;2023-05-21T07:11:04;20.10;99.90
8313;DHT22;4194;43.408;24.626;2023-05-21T07:15:55;20.50;99.90
8313;DHT22;4194;43.408;24.626;2023-05-21T07:18:21;21.70;99.90
8313;DHT22;4194;43.408;24.626;2023-05-21T07:23:13;22.10;99.60
8313;DHT22;4194;43.408;24.626;2023-05-21T07:25:38;21.40;97.20
8313;DHT22;4194;43.408;24.626;2023-05-21T07:28:04;21.60;97.20
8313;DHT22;4194;43.408;24.626;2023-05-21T07:30:30;22.20;95.30
8313;DHT22;4194;43.408;24.626;2023-05-21T07:32:55;22.40;94.50
8313;DHT22;4194;43.408;24.626;2023-05-21T07:35:21;21.90;94.20
8313;DHT22;4194;43.408;24.626;2023-05-21T07:37:47;22.30;93.10
8313;DHT22;4194;43.408;24.626;2023-05-21T07:40:13;23.20;91.60
8313;DHT22;4194;43.408;24.626;2023-05-21T07:42:39;22.30;91.50
8313;DHT22;4194;43.408;24.626;2023-05-21T07:45:05;22.40;91.40
8313;DHT22;4194;43.408;24.626;2023-05-21T07:47:31;21.80;90.40
8313;DHT22;4194;43.408;24.626;2023-05-21T07:49:57;22.10;90.60
8313;DHT22;4194;43.408;24.626;2023-05-21T07:52:26;22.40;90.80
8313;DHT22;4194;43.408;24.626;2023-05-21T07:54:51;22.30;90.50
8313;DHT22;4194;43.408;24.626;2023-05-21T07:57:17;22.00;90.10
8313;DHT22;4194;43.408;24.626;2023-05-21T07:59:43;22.20;89.80
8313;DHT22;4194;43.408;24.626;2023-05-21T08:04:34;22.90;90.00
8313;DHT22;4194;43.408;24.626;2023-05-21T08:07:01;22.20;88.40
8313;DHT22;4194;43.408;24.626;2023-05-21T08:09:27;22.40;87.10
8313;DHT22;4194;43.408;24.626;2023-05-21T08:14:18;23.90;86.00
8313;DHT22;4194;43.408;24.626;2023-05-21T08:16:45;23.50;85.70
8313;DHT22;4194;43.408;24.626;2023-05-21T08:19:11;23.90;83.20
8313;DHT22;4194;43.408;24.626;2023-05-21T08:21:36;22.90;83.60
8313;DHT22;4194;43.408;24.626;2023-05-21T08:24:02;23.80;83.70
8313;DHT22;4194;43.408;24.626;2023-05-21T08:26:28;24.30;82.40
8313;DHT22;4194;43.408;24.626;2023-05-21T08:31:20;23.80;84.80
8313;DHT22;4194;43.408;24.626;2023-05-21T08:33:53;23.10;84.50
8313;DHT22;4194;43.408;24.626;2023-05-21T08:36:20;23.50;82.80
8313;DHT22;4194;43.408;24.626;2023-05-21T08:38:47;23.10;82.50
8313;DHT22;4194;43.408;24.626;2023-05-21T08:41:13;23.70;82.70
8313;DHT22;4194;43.408;24.626;2023-05-21T08:43:39;23.60;83.10
8313;DHT22;4194;43.408;24.626;2023-05-21T08:46:06;23.40;81.10
8313;DHT22;4194;43.408;24.626;2023-05-21T08:48:33;23.40;82.70
8313;DHT22;4194;43.408;24.626;2023-05-21T08:51:01;24.00;82.60
8313;DHT22;4194;43.408;24.626;2023-05-21T08:53:26;24.00;80.60
8313;DHT22;4194;43.408;24.626;2023-05-21T08:55:53;23.30;79.70
8313;DHT22;4194;43.408;24.626;2023-05-21T08:58:20;23.20;78.70
8313;DHT22;4194;43.408;24.626;2023-05-21T09:00:46;23.90;79.50
8313;DHT22;4194;43.408;24.626;2023-05-21T09:03:13;23.80;79.80
8313;DHT22;4194;43.408;24.626;2023-05-21T09:05:43;23.70;80.10
8313;DHT22;4194;43.408;24.626;2023-05-21T09:08:42;23.90;82.20
8313;DHT22;4194;43.408;24.626;2023-05-21T09:13:31;24.00;82.90
8313;DHT22;4194;43.408;24.626;2023-05-21T09:15:58;24.30;81.00
8313;DHT22;4194;43.408;24.626;2023-05-21T09:18:23;24.20;79.00
8313;DHT22;4194;43.408;24.626;2023-05-21T09:20:52;24.30;76.40
8313;DHT22;4194;43.408;24.626;2023-05-21T09:23:18;24.00;76.90
8313;DHT22;4194;43.408;24.626;2023-05-21T09:25:45;23.90;76.10
8313;DHT22;4194;43.408;24.626;2023-05-21T09:28:13;24.10;76.90
8313;DHT22;4194;43.408;24.626;2023-05-21T09:30:46;25.00;78.60
8313;DHT22;4194;43.408;24.626;2023-05-21T09:33:26;25.10;77.30
8313;DHT22;4194;43.408;24.626;2023-05-21T09:35:53;25.30;76.60
8313;DHT22;4194;43.408;24.626;2023-05-21T09:38:23;25.00;76.10
8313;DHT22;4194;43.408;24.626;2023-05-21T09:40:49;25.40;75.00
8313;DHT22;4194;43.408;24.626;2023-05-21T09:43:15;24.50;75.40
8313;DHT22;4194;43.408;24.626;2023-05-21T09:45:59;25.10;76.80
8313;DHT22;4194;43.408;24.626;2023-05-21T09:48:39;26.30;77.20
8313;DHT22;4194;43.408;24.626;2023-05-21T09:51:17;25.40;75.30
8313;DHT22;4194;43.408;24.626;2023-05-21T09:53:50;25.40;73.60
8313;DHT22;4194;43.408;24.626;2023-05-21T09:56:23;24.70;70.80
8313;DHT22;4194;43.408;24.626;2023-05-21T09:59:02;25.70;72.00
8313;DHT22;4194;43.408;24.626;2023-05-21T10:01:31;25.30;72.80
8313;DHT22;4194;43.408;24.626;2023-05-21T10:04:05;26.20;74.00
8313;DHT22;4194;43.408;24.626;2023-05-21T10:06:35;26.60;74.30
8313;DHT22;4194;43.408;24.626;2023-05-21T10:09:05;27.30;72.70
8313;DHT22;4194;43.408;24.626;2023-05-21T10:11:32;26.30;71.50
8313;DHT22;4194;43.408;24.626;2023-05-21T10:14:26;26.70;71.20
8313;DHT22;4194;43.408;24.626;2023-05-21T10:16:53;28.00;69.40
8313;DHT22;4194;43.408;24.626;2023-05-21T10:19:21;26.50;66.60
8313;DHT22;4194;43.408;24.626;2023-05-21T10:21:49;26.30;66.90
8313;DHT22;4194;43.408;24.626;2023-05-21T10:24:17;26.10;65.30
8313;DHT22;4194;43.408;24.626;2023-05-21T10:26:43;27.70;65.20
8313;DHT22;4194;43.408;24.626;2023-05-21T10:29:10;28.00;63.60
8313;DHT22;4194;43.408;24.626;2023-05-21T10:31:38;28.20;64.70
8313;DHT22;4194;43.408;24.626;2023-05-21T10:34:04;27.90;63.00
8313;DHT22;4194;43.408;24.626;2023-05-21T10:36:31;29.00;62.50
8313;DHT22;4194;43.408;24.626;2023-05-21T10:38:59;28.50;62.00
8313;DHT22;4194;43.408;24.626;2023-05-21T10:41:27;29.10;60.30
8313;DHT22;4194;43.408;24.626;2023-05-21T10:44:04;29.10;59.70
8313;DHT22;4194;43.408;24.626;2023-05-21T10:57:37;29.10;58.70
8313;DHT22;4194;43.408;24.626;2023-05-21T11:00:10;29.80;59.60
8313;DHT22;4194;43.408;24.626;2023-05-21T11:02:37;29.80;59.40
8313;DHT22;4194;43.408;24.626;2023-05-21T11:05:03;30.40;59.80
8313;DHT22;4194;43.408;24.626;2023-05-21T11:07:57;30.10;59.50
8313;DHT22;4194;43.408;24.626;2023-05-21T11:13:15;30.80;56.70
8313;DHT22;4194;43.408;24.626;2023-05-21T11:18:22;30.40;57.90
8313;DHT22;4194;43.408;24.626;2023-05-21T11:20:51;30.60;58.80
8313;DHT22;4194;43.408;24.626;2023-05-21T11:23:19;30.60;58.70
8313;DHT22;4194;43.408;24.626;2023-05-21T11:26:00;31.10;58.60
8313;DHT22;4194;43.408;24.626;2023-05-21T11:28:33;31.30;57.20
8313;DHT22;4194;43.408;24.626;2023-05-21T11:31:23;31.40;55.70
8313;DHT22;4194;43.408;24.626;2023-05-21T11:36:48;31.30;56.50
8313;DHT22;4194;43.408;24.626;2023-05-21T11:39:15;31.10;56.10
8313;DHT22;4194;43.408;24.626;2023-05-21T11:41:56;31.40;56.10
8313;DHT22;4194;43.408;24.626;2023-05-21T11:44:44;31.50;55.50
8313;DHT22;4194;43.408;24.626;2023-05-21T11:47:14;31.30;54.20
8313;DHT22;4194;43.408;24.626;2023-05-21T11:49:41;31.80;53.90
8313;DHT22;4194;43.408;24.626;2023-05-21T11:52:09;31.70;54.30
8313;DHT22;4194;43.408;24.626;2023-05-21T11:54:52;31.10;52.50
8313;DHT22;4194;43.408;24.626;2023-05-21T11:57:24;31.50;55.30
8313;DHT22;4194;43.408;24.626;2023-05-21T11:59:51;32.00;54.60
8313;DHT22;4194;43.408;24.626;2023-05-21T12:02:20;33.10;53.90
8313;DHT22;4194;43.408;24.626;2023-05-21T12:04:48;32.40;52.50
8313;DHT22;4194;43.408;24.626;2023-05-21T12:07:16;32.80;51.50
8313;DHT22;4194;43.408;24.626;2023-05-21T12:12:09;33.10;51.80
8313;DHT22;4194;43.408;24.626;2023-05-21T12:14:36;32.10;51.70
8313;DHT22;4194;43.408;24.626;2023-05-21T12:17:05;31.80;52.90
8313;DHT22;4194;43.408;24.626;2023-05-21T12:19:35;30.60;54.20
8313;DHT22;4194;43.408;24.626;2023-05-21T12:22:05;30.60;55.20
8313;DHT22;4194;43.408;24.626;2023-05-21T12:24:31;30.20;55.30
8313;DHT22;4194;43.408;24.626;2023-05-21T12:26:59;30.60;56.60
8313;DHT22;4194;43.408;24.626;2023-05-21T12:29:32;28.90;55.70
8313;DHT22;4194;43.408;24.626;2023-05-21T12:31:59;28.60;57.50
8313;DHT22;4194;43.408;24.626;2023-05-21T12:34:44;28.50;59.10
8313;DHT22;4194;43.408;24.626;2023-05-21T12:37:21;27.70;59.60
8313;DHT22;4194;43.408;24.626;2023-05-21T12:39:49;27.00;60.90
8313;DHT22;4194;43.408;24.626;2023-05-21T12:42:15;26.40;61.60
8313;DHT22;4194;43.408;24.626;2023-05-21T12:44:46;25.80;63.30
8313;DHT22;4194;43.408;24.626;2023-05-21T12:47:12;26.20;64.60
8313;DHT22;4194;43.408;24.626;2023-05-21T12:49:42;26.70;65.20
8313;DHT22;4194;43.408;24.626;2023-05-21T12:52:17;26.50;64.30
8313;DHT22;4194;43.408;24.626;2023-05-21T12:54:45;26.20;63.50
8313;DHT22;4194;43.408;24.626;2023-05-21T12:57:15;26.50;64.50
8313;DHT22;4194;43.408;24.626;2023-05-21T13:05:02;30.10;56.60
8313;DHT22;4194;43.408;24.626;2023-05-21T13:07:29;31.20;54.00
8313;DHT22;4194;43.408;24.626;2023-05-21T13:09:55;31.30;53.00
8313;DHT22;4194;43.408;24.626;2023-05-21T13:12:23;31.60;52.30
8313;DHT22;4194;43.408;24.626;2023-05-21T13:14:49;32.50;52.00
8313;DHT22;4194;43.408;24.626;2023-05-21T13:17:16;33.00;52.50
8313;DHT22;4194;43.408;24.626;2023-05-21T13:19:42;32.20;51.10
8313;DHT22;4194;43.408;24.626;2023-05-21T13:22:08;31.60;52.30
8313;DHT22;4194;43.408;24.626;2023-05-21T13:24:35;31.20;54.30
8313;DHT22;4194;43.408;24.626;2023-05-21T13:27:02;31.20;53.40
8313;DHT22;4194;43.408;24.626;2023-05-21T13:31:54;31.10;53.00
8313;DHT22;4194;43.408;24.626;2023-05-21T13:34:20;31.30;52.20
8313;DHT22;4194;43.408;24.626;2023-05-21T13:36:45;31.40;51.90
8313;DHT22;4194;43.408;24.626;2023-05-21T13:39:11;31.10;52.60
8313;DHT22;4194;43.408;24.626;2023-05-21T13:41:37;30.60;53.70
8313;DHT22;4194;43.408;24.626;2023-05-21T13:44:03;30.70;54.10
8313;DHT22;4194;43.408;24.626;2023-05-21T13:46:28;30.60;52.50
8313;DHT22;4194;43.408;24.626;2023-05-21T13:48:54;30.20;53.80
8313;DHT22;4194;43.408;24.626;2023-05-21T13:51:20;30.80;54.20
8313;DHT22;4194;43.408;24.626;2023-05-21T13:53:45;31.30;55.10
8313;DHT22;4194;43.408;24.626;2023-05-21T13:58:37;32.60;51.60
8313;DHT22;4194;43.408;24.626;2023-05-21T14:01:05;35.30;48.90
8313;DHT22;4194;43.408;24.626;2023-05-21T14:03:31;36.20;46.20
8313;DHT22;4194;43.408;24.626;2023-05-21T14:05:57;36.90;44.50
8313;DHT22;4194;43.408;24.626;2023-05-21T14:08:23;36.70;43.80
8313;DHT22;4194;43.408;24.626;2023-05-21T14:10:51;37.40;45.00
8313;DHT22;4194;43.408;24.626;2023-05-21T14:13:17;35.90;44.80
8313;DHT22;4194;43.408;24.626;2023-05-21T14:15:43;35.40;45.40
8313;DHT22;4194;43.408;24.626;2023-05-21T14:18:08;34.80;47.20
8313;DHT22;4194;43.408;24.626;2023-05-21T14:20:37;33.40;48.50
8313;DHT22;4194;43.408;24.626;2023-05-21T14:23:04;34.00;50.00
8313;DHT22;4194;43.408;24.626;2023-05-21T14:25:29;32.70;49.80
8313;DHT22;4194;43.408;24.626;2023-05-21T14:27:55;31.90;50.60
8313;DHT22;4194;43.408;24.626;2023-05-21T14:30:21;31.00;53.00
8313;DHT22;4194;43.408;24.626;2023-05-21T14:32:46;30.50;52.70
8313;DHT22;4194;43.408;24.626;2023-05-21T14:35:12;29.60;54.00
8313;DHT22;4194;43.408;24.626;2023-05-21T14:37:38;27.30;54.30
8313;DHT22;4194;43.408;24.626;2023-05-21T14:40:04;27.80;56.50
8313;DHT22;4194;43.408;24.626;2023-05-21T14:42:32;27.40;57.40
8313;DHT22;4194;43.408;24.626;2023-05-21T14:44:59;26.40;58.60
8313;DHT22;4194;43.408;24.626;2023-05-21T14:47:24;25.90;59.90
8313;DHT22;4194;43.408;24.626;2023-05-21T14:49:50;25.80;61.20
8313;DHT22;4194;43.408;24.626;2023-05-21T14:52:16;25.40;61.30
8313;DHT22;4194;43.408;24.626;2023-05-21T14:54:41;25.40;62.60
8313;DHT22;4194;43.408;24.626;2023-05-21T14:57:07;24.00;61.30
8313;DHT22;4194;43.408;24.626;2023-05-21T14:59:33;25.20;63.40
8313;DHT22;4194;43.408;24.626;2023-05-21T15:01:58;25.60;62.20
8313;DHT22;4194;43.408;24.626;2023-05-21T15:04:24;27.20;60.20
8313;DHT22;4194;43.408;24.626;2023-05-21T15:06:50;29.10;56.90
8313;DHT22;4194;43.408;24.626;2023-05-21T15:11:44;31.20;53.60
8313;DHT22;4194;43.408;24.626;2023-05-21T15:14:11;30.20;54.00
8313;DHT22;4194;43.408;24.626;2023-05-21T15:16:36;29.90;55.70
8313;DHT22;4194;43.408;24.626;2023-05-21T15:19:07;28.60;56.80
8313;DHT22;4194;43.408;24.626;2023-05-21T15:21:33;28.90;58.20
8313;DHT22;4194;43.408;24.626;2023-05-21T15:23:59;28.70;57.50
8313;DHT22;4194;43.408;24.626;2023-05-21T15:28:51;27.30;58.50
8313;DHT22;4194;43.408;24.626;2023-05-21T15:31:17;28.10;59.60
8313;DHT22;4194;43.408;24.626;2023-05-21T15:33:42;26.40;57.70
8313;DHT22;4194;43.408;24.626;2023-05-21T15:36:08;27.30;58.90
8313;DHT22;4194;43.408;24.626;2023-05-21T15:38:34;25.40;59.10
8313;DHT22;4194;43.408;24.626;2023-05-21T15:41:00;25.80;61.50
8313;DHT22;4194;43.408;24.626;2023-05-21T15:43:26;24.30;61.70
8313;DHT22;4194;43.408;24.626;2023-05-21T15:45:51;24.30;62.00
8313;DHT22;4194;43.408;24.626;2023-05-21T15:48:17;23.90;63.40
8313;DHT22;4194;43.408;24.626;2023-05-21T15:50:47;23.70;63.50
8313;DHT22;4194;43.408;24.626;2023-05-21T15:53:13;23.60;64.20
8313;DHT22;4194;43.408;24.626;2023-05-21T15:55:39;23.50;64.20
8313;DHT22;4194;43.408;24.626;2023-05-21T15:58:05;23.20;64.60
8313;DHT22;4194;43.408;24.626;2023-05-21T16:00:31;23.40;65.00
8313;DHT22;4194;43.408;24.626;2023-05-21T16:02:57;23.20;64.40
8313;DHT22;4194;43.408;24.626;2023-05-21T16:05:22;23.10;66.40
8313;DHT22;4194;43.408;24.626;2023-05-21T16:07:48;23.10;66.50
8313;DHT22;4194;43.408;24.626;2023-05-21T16:10:14;23.70;67.10
8313;DHT22;4194;43.408;24.626;2023-05-21T16:12:40;22.90;67.90
8313;DHT22;4194;43.408;24.626;2023-05-21T16:15:05;22.20;67.10
8313;DHT22;4194;43.408;24.626;2023-05-21T16:17:31;23.40;67.90
8313;DHT22;4194;43.408;24.626;2023-05-21T16:19:57;22.90;68.20
8313;DHT22;4194;43.408;24.626;2023-05-21T16:22:23;23.60;69.40
8313;DHT22;4194;43.408;24.626;2023-05-21T16:24:49;23.70;69.80
8313;DHT22;4194;43.408;24.626;2023-05-21T16:27:15;22.40;68.30
8313;DHT22;4194;43.408;24.626;2023-05-21T16:32:07;22.00;68.50
8313;DHT22;4194;43.408;24.626;2023-05-21T16:34:34;22.50;69.60
8313;DHT22;4194;43.408;24.626;2023-05-21T16:37:00;23.10;70.70
8313;DHT22;4194;43.408;24.626;2023-05-21T16:39:26;21.90;69.50
8313;DHT22;4194;43.408;24.626;2023-05-21T16:44:20;21.20;69.70
8313;DHT22;4194;43.408;24.626;2023-05-21T16:46:46;23.00;72.10
8313;DHT22;4194;43.408;24.626;2023-05-21T16:49:12;21.20;71.10
8313;DHT22;4194;43.408;24.626;2023-05-21T16:51:37;22.10;72.30
8313;DHT22;4194;43.408;24.626;2023-05-21T16:54:03;22.00;73.20
8313;DHT22;4194;43.408;24.626;2023-05-21T16:56:30;20.40;71.60
8313;DHT22;4194;43.408;24.626;2023-05-21T17:01:22;21.60;73.50
8313;DHT22;4194;43.408;24.626;2023-05-21T17:03:47;21.50;73.80
8313;DHT22;4194;43.408;24.626;2023-05-21T17:08:39;21.00;75.00
8313;DHT22;4194;43.408;24.626;2023-05-21T17:11:07;21.70;76.80
8313;DHT22;4194;43.408;24.626;2023-05-21T17:13:33;20.30;74.80
8313;DHT22;4194;43.408;24.626;2023-05-21T17:15:59;21.10;76.20
8313;DHT22;4194;43.408;24.626;2023-05-21T17:18:24;19.90;76.30